createdAt,value
2018-12-27T00:01:54.187Z,13.40
2018-12-27T00:04:35.256Z,13.40
2018-12-27T00:07:16.304Z,13.40
2018-12-27T00:09:56.779Z,13.30
2018-12-27T00:12:40.154Z,13.30
2018-12-27T00:15:20.835Z,13.30
2018-12-27T00:18:01.991Z,13.30
2018-12-27T00:20:42.851Z,13.30
2018-12-27T00:23:23.935Z,13.30
2018-12-27T00:26:04.686Z,13.30
2018-12-27T00:28:45.428Z,13.30
2018-12-27T00:31:28.205Z,13.30
2018-12-27T00:34:09.267Z,13.30
2018-12-27T00:36:50.587Z,13.30
2018-12-27T00:39:31.159Z,13.30
2018-12-27T00:42:11.915Z,13.30
2018-12-27T00:44:53.162Z,13.20
2018-12-27T00:47:34.390Z,13.20
2018-12-27T00:50:15.243Z,13.20
2018-12-27T00:52:56.350Z,13.20
2018-12-27T00:55:37.160Z,13.20
2018-12-27T00:58:19.444Z,13.20
2018-12-27T01:01:00.055Z,13.20
2018-12-27T01:03:41.183Z,13.20
2018-12-27T01:06:22.978Z,13.20
2018-12-27T01:09:04.122Z,13.20
2018-12-27T01:11:44.899Z,13.10
2018-12-27T01:14:26.142Z,13.10
2018-12-27T01:17:07.252Z,13.10
2018-12-27T01:19:48.371Z,13.10
2018-12-27T01:22:29.232Z,13.10
2018-12-27T01:25:16.196Z,13.10
2018-12-27T01:27:52.267Z,13.10
2018-12-27T01:30:33.189Z,13.10
2018-12-27T01:33:18.702Z,13.10
2018-12-27T01:35:56.131Z,13.10
2018-12-27T01:38:37.896Z,13.00
2018-12-27T01:41:18.571Z,13.00
2018-12-27T01:43:59.211Z,13.00
2018-12-27T01:49:38.489Z,13.00
2018-12-27T01:52:20.420Z,12.90
2018-12-27T01:55:01.231Z,12.90
2018-12-27T02:00:54.758Z,12.90
2018-12-27T02:03:34.976Z,12.90
2018-12-27T02:06:15.994Z,12.90
2018-12-27T02:08:56.807Z,12.80
2018-12-27T02:11:37.455Z,12.80
2018-12-27T02:14:25.699Z,12.80
2018-12-27T02:17:07.924Z,12.80
2018-12-27T02:19:48.355Z,12.80
2018-12-27T02:22:29.303Z,12.80
2018-12-27T02:25:10.061Z,12.80
2018-12-27T02:27:51.088Z,12.80
2018-12-27T02:30:31.952Z,12.70
2018-12-27T02:33:13.075Z,12.70
2018-12-27T02:35:55.485Z,12.70
2018-12-27T02:38:35.787Z,12.70
2018-12-27T02:41:16.127Z,12.70
2018-12-27T02:43:57.215Z,12.70
2018-12-27T02:46:38.232Z,12.70
2018-12-27T02:49:19.371Z,12.70
2018-12-27T02:52:00.941Z,12.70
2018-12-27T02:54:41.655Z,12.70
2018-12-27T02:57:22.392Z,12.70
2018-12-27T03:00:24.931Z,12.60
2018-12-27T03:02:51.675Z,12.60
2018-12-27T03:05:34.778Z,12.60
2018-12-27T03:08:15.700Z,12.60
2018-12-27T03:10:54.593Z,12.60
2018-12-27T03:13:42.551Z,12.60
2018-12-27T03:16:23.201Z,12.60
2018-12-27T03:19:04.011Z,12.60
2018-12-27T03:21:45.078Z,12.60
2018-12-27T03:24:26.069Z,12.60
2018-12-27T03:27:06.809Z,12.60
2018-12-27T03:29:47.805Z,12.60
2018-12-27T03:32:28.973Z,12.60
2018-12-27T03:35:10.052Z,12.50
2018-12-27T03:37:51.247Z,12.50
2018-12-27T03:40:33.291Z,12.50
2018-12-27T03:43:14.344Z,12.50
2018-12-27T03:45:53.249Z,12.50
2018-12-27T03:48:41.199Z,12.50
2018-12-27T03:51:22.500Z,12.50
2018-12-27T03:54:03.432Z,12.50
2018-12-27T03:56:44.383Z,12.50
2018-12-27T03:59:23.256Z,12.50
2018-12-27T04:02:22.988Z,12.50
2018-12-27T04:04:55.335Z,12.50
2018-12-27T04:07:35.651Z,12.50
2018-12-27T04:10:16.395Z,12.50
2018-12-27T04:12:56.984Z,12.50
2018-12-27T04:15:41.786Z,12.50
2018-12-27T04:18:22.203Z,12.50
2018-12-27T04:21:09.992Z,12.50
2018-12-27T04:23:51.278Z,12.50
2018-12-27T04:26:31.971Z,12.50
2018-12-27T04:29:13.054Z,12.40
2018-12-27T04:31:53.936Z,12.40
2018-12-27T04:34:35.152Z,12.40
2018-12-27T04:37:16.231Z,12.40
2018-12-27T04:39:57.355Z,12.40
2018-12-27T04:42:40.743Z,12.40
2018-12-27T04:45:21.415Z,12.40
2018-12-27T04:48:03.488Z,12.40
2018-12-27T04:50:42.184Z,12.40
2018-12-27T04:53:22.976Z,12.40
2018-12-27T04:56:30.202Z,12.30
2018-12-27T04:59:10.608Z,12.40
2018-12-27T05:01:52.803Z,12.30
2018-12-27T05:04:33.801Z,12.30
2018-12-27T05:07:14.875Z,12.30
2018-12-27T05:09:57.231Z,12.30
2018-12-27T05:15:30.971Z,12.30
2018-12-27T05:18:12.244Z,12.30
2018-12-27T05:20:53.798Z,12.30
2018-12-27T05:23:41.724Z,12.30
2018-12-27T05:26:29.188Z,12.30
2018-12-27T05:29:12.810Z,12.30
2018-12-27T05:32:12.707Z,12.30
2018-12-27T05:37:30.848Z,12.30
2018-12-27T05:40:12.688Z,12.20
2018-12-27T05:43:00.589Z,12.20
2018-12-27T05:45:48.074Z,12.20
2018-12-27T05:48:30.484Z,12.20
2018-12-27T05:51:18.040Z,12.20
2018-12-27T05:53:59.112Z,12.20
2018-12-27T05:56:40.213Z,12.20
2018-12-27T06:02:19.615Z,12.20
2018-12-27T06:05:00.734Z,12.20
2018-12-27T06:07:41.472Z,12.20
2018-12-27T06:10:23.550Z,12.20
2018-12-27T06:13:09.554Z,12.20
2018-12-27T06:15:50.384Z,12.20
2018-12-27T06:18:31.019Z,12.10
2018-12-27T06:21:11.811Z,12.10
2018-12-27T06:23:56.041Z,12.10
2018-12-27T06:26:42.115Z,12.10
2018-12-27T06:29:22.575Z,12.10
2018-12-27T06:32:04.794Z,12.10
2018-12-27T06:34:45.931Z,12.10
2018-12-27T06:37:26.883Z,12.10
2018-12-27T06:40:07.971Z,12.10
2018-12-27T06:42:49.392Z,12.10
2018-12-27T06:45:30.376Z,12.10
2018-12-27T06:48:11.087Z,12.10
2018-12-27T06:50:51.844Z,12.10
2018-12-27T06:53:32.792Z,12.20
2018-12-27T06:56:14.151Z,12.30
2018-12-27T06:58:54.809Z,12.50
2018-12-27T07:01:35.964Z,12.60
2018-12-27T07:04:16.683Z,12.80
2018-12-27T07:06:57.649Z,13.10
2018-12-27T07:09:38.622Z,13.30
2018-12-27T07:12:20.702Z,13.50
2018-12-27T07:15:01.724Z,13.70
2018-12-27T07:17:42.567Z,13.80
2018-12-27T07:20:23.234Z,13.90
2018-12-27T07:23:03.699Z,14.10
2018-12-27T07:25:44.869Z,14.10
2018-12-27T07:28:26.154Z,14.20
2018-12-27T07:31:07.170Z,14.20
2018-12-27T07:33:49.173Z,14.30
2018-12-27T07:36:27.883Z,14.30
2018-12-27T07:39:15.591Z,14.40
2018-12-27T07:41:56.319Z,14.30
2018-12-27T07:44:37.231Z,14.40
2018-12-27T07:53:15.631Z,14.70
2018-12-27T07:55:56.687Z,14.60
2018-12-27T07:58:41.785Z,14.60
2018-12-27T08:01:22.352Z,14.70
2018-12-27T08:04:03.051Z,14.80
2018-12-27T08:06:44.064Z,15.00
2018-12-27T08:09:24.982Z,15.20
2018-12-27T08:12:05.776Z,15.30
2018-12-27T08:14:46.799Z,15.50
2018-12-27T08:17:28.239Z,15.60
2018-12-27T08:23:07.389Z,16.00
2018-12-27T08:32:06.076Z,16.90
2018-12-27T08:34:48.255Z,16.90
2018-12-27T08:40:29.066Z,17.00
2018-12-27T08:43:10.073Z,17.10
2018-12-27T08:45:50.884Z,17.10
2018-12-27T08:48:33.412Z,17.20
2018-12-27T08:51:12.111Z,17.20
2018-12-27T08:53:50.975Z,17.30
2018-12-27T08:56:31.331Z,17.30
2018-12-27T08:59:12.124Z,17.30
2018-12-27T09:01:53.130Z,17.30
2018-12-27T09:04:33.933Z,17.40
2018-12-27T09:07:15.183Z,17.40
2018-12-27T09:13:08.262Z,17.60
2018-12-27T09:15:49.400Z,17.70
2018-12-27T09:18:30.233Z,17.80
2018-12-27T09:21:11.282Z,17.90
2018-12-27T09:23:51.967Z,17.90
2018-12-27T09:26:32.806Z,17.90
2018-12-27T09:29:13.529Z,17.80
2018-12-27T09:31:54.403Z,17.80
2018-12-27T09:34:35.455Z,17.80
2018-12-27T09:37:16.220Z,17.80
2018-12-27T09:39:57.076Z,17.80
2018-12-27T09:42:37.562Z,17.70
2018-12-27T09:45:18.261Z,17.70
2018-12-27T09:47:59.276Z,17.80
2018-12-27T09:50:40.055Z,17.80
2018-12-27T09:53:20.707Z,17.90
2018-12-27T09:56:01.511Z,17.90
2018-12-27T09:58:42.571Z,18.10
2018-12-27T10:01:23.373Z,18.20
2018-12-27T10:04:04.308Z,18.40
2018-12-27T10:06:45.088Z,18.60
2018-12-27T10:09:25.913Z,18.80
2018-12-27T10:12:06.551Z,19.00
2018-12-27T10:14:47.575Z,19.20
2018-12-27T10:17:28.687Z,19.30
2018-12-27T10:20:09.563Z,19.40
2018-12-27T10:22:50.419Z,19.60
2018-12-27T10:25:29.143Z,19.70
2018-12-27T10:28:09.723Z,19.80
2018-12-27T10:30:50.776Z,19.90
2018-12-27T10:33:31.847Z,19.90
2018-12-27T10:36:13.024Z,20.00
2018-12-27T10:38:53.696Z,20.10
2018-12-27T10:41:34.601Z,20.20
2018-12-27T10:44:16.063Z,20.30
2018-12-27T10:46:56.999Z,20.30
2018-12-27T10:49:37.613Z,20.40
2018-12-27T10:52:18.288Z,20.40
2018-12-27T10:54:59.527Z,20.50
2018-12-27T10:57:40.269Z,20.50
2018-12-27T11:00:21.119Z,20.60
2018-12-27T11:03:01.712Z,20.60
2018-12-27T11:05:48.647Z,20.80
2018-12-27T11:08:25.471Z,20.90
2018-12-27T11:11:06.655Z,20.60
2018-12-27T11:16:47.439Z,20.30
2018-12-27T11:19:28.311Z,20.30
2018-12-27T11:22:09.363Z,20.30
2018-12-27T11:24:50.036Z,20.30
2018-12-27T11:27:31.103Z,20.30
2018-12-27T11:30:11.783Z,20.30
2018-12-27T11:32:52.231Z,20.40
2018-12-27T11:35:33.071Z,20.40
2018-12-27T11:38:13.832Z,20.40
2018-12-27T11:40:54.639Z,20.40
2018-12-27T11:43:35.395Z,20.40
2018-12-27T11:46:16.203Z,20.40
2018-12-27T12:00:51.676Z,20.60
2018-12-27T12:03:32.676Z,20.60
2018-12-27T12:06:13.465Z,20.60
2018-12-27T12:08:55.210Z,20.70
2018-12-27T12:11:36.270Z,20.70
2018-12-27T12:14:17.564Z,20.70
2018-12-27T12:16:58.075Z,20.70
2018-12-27T12:19:38.884Z,20.70
2018-12-27T12:22:19.803Z,20.70
2018-12-27T12:25:00.375Z,20.70
2018-12-27T12:27:41.384Z,20.80
2018-12-27T12:30:22.364Z,20.80
2018-12-27T12:33:03.070Z,20.80
2018-12-27T12:35:45.182Z,20.90
2018-12-27T12:38:25.676Z,21.00
2018-12-27T12:44:05.604Z,21.20
2018-12-27T12:46:46.764Z,21.30
2018-12-27T12:49:27.418Z,21.50
2018-12-27T12:52:08.321Z,21.70
2018-12-27T12:54:49.247Z,21.80
2018-12-27T12:57:30.348Z,21.90
2018-12-27T13:00:11.951Z,22.10
2018-12-27T13:02:53.146Z,22.10
2018-12-27T13:05:33.956Z,22.20
2018-12-27T13:08:15.228Z,22.30
2018-12-27T13:10:56.505Z,22.40
2018-12-27T13:13:36.995Z,22.40
2018-12-27T13:16:17.627Z,22.40
2018-12-27T13:18:57.844Z,22.50
2018-12-27T13:21:38.827Z,22.60
2018-12-27T13:24:20.024Z,22.60
2018-12-27T13:27:00.707Z,22.60
2018-12-27T13:29:41.720Z,22.70
2018-12-27T13:32:22.575Z,22.70
2018-12-27T13:35:03.755Z,22.70
2018-12-27T13:37:44.451Z,22.80
2018-12-27T13:40:25.291Z,22.80
2018-12-27T13:43:06.045Z,22.80
2018-12-27T13:45:46.874Z,22.80
2018-12-27T13:48:27.771Z,22.90
2018-12-27T13:51:08.556Z,22.80
2018-12-27T13:53:49.763Z,22.80
2018-12-27T13:56:30.679Z,22.80
2018-12-27T13:59:11.615Z,22.80
2018-12-27T14:01:52.352Z,22.80
2018-12-27T14:04:33.283Z,22.70
2018-12-27T14:07:14.171Z,22.70
2018-12-27T14:09:54.951Z,22.70
2018-12-27T14:12:35.863Z,22.70
2018-12-27T14:15:16.911Z,22.60
2018-12-27T14:17:57.680Z,22.60
2018-12-27T14:20:38.383Z,22.60
2018-12-27T14:23:19.799Z,22.50
2018-12-27T14:26:00.145Z,22.50
2018-12-27T14:28:40.980Z,22.40
2018-12-27T14:31:21.771Z,22.40
2018-12-27T14:34:02.810Z,22.40
2018-12-27T14:36:43.765Z,22.30
2018-12-27T14:39:24.343Z,22.30
2018-12-27T14:42:05.166Z,22.20
2018-12-27T14:44:46.165Z,22.10
2018-12-27T14:50:25.877Z,22.00
2018-12-27T14:53:06.724Z,21.90
2018-12-27T14:55:47.770Z,21.80
2018-12-27T14:58:28.406Z,21.70
2018-12-27T15:01:09.620Z,21.60
2018-12-27T15:03:50.384Z,21.60
2018-12-27T15:06:31.443Z,21.50
2018-12-27T15:09:12.418Z,21.40
2018-12-27T15:11:53.534Z,21.30
2018-12-27T15:14:34.502Z,21.20
2018-12-27T15:17:15.611Z,21.10
2018-12-27T15:19:56.531Z,21.10
2018-12-27T15:22:35.299Z,21.00
2018-12-27T15:25:23.095Z,20.90
2018-12-27T15:28:03.776Z,20.90
2018-12-27T15:30:44.552Z,20.80
2018-12-27T15:33:25.463Z,20.70
2018-12-27T15:36:06.378Z,20.70
2018-12-27T15:38:47.485Z,20.60
2018-12-27T15:41:28.110Z,20.50
2018-12-27T15:44:08.715Z,20.50
2018-12-27T15:46:49.639Z,20.40
2018-12-27T15:49:30.605Z,20.30
2018-12-27T15:52:11.551Z,20.30
2018-12-27T15:54:52.484Z,20.20
2018-12-27T15:57:33.595Z,20.10
2018-12-27T16:00:14.326Z,20.10
2018-12-27T16:02:54.884Z,20.00
2018-12-27T16:05:36.091Z,19.90
2018-12-27T16:08:16.716Z,19.80
2018-12-27T16:10:57.509Z,19.70
2018-12-27T16:13:38.176Z,19.60
2018-12-27T16:16:19.117Z,19.60
2018-12-27T16:19:00.363Z,19.50
2018-12-27T16:21:41.167Z,19.40
2018-12-27T16:24:22.271Z,19.30
2018-12-27T16:27:03.068Z,19.30
2018-12-27T16:29:44.208Z,19.30
2018-12-27T16:32:24.988Z,19.20
2018-12-27T16:35:05.564Z,19.10
2018-12-27T16:37:46.342Z,19.10
2018-12-27T16:40:26.991Z,19.00
2018-12-27T16:43:08.137Z,19.00
2018-12-27T16:45:49.055Z,18.90
2018-12-27T16:48:30.216Z,18.90
2018-12-27T16:51:11.185Z,18.80
2018-12-27T16:53:52.168Z,18.80
2018-12-27T16:56:32.930Z,18.70
2018-12-27T16:59:14.049Z,18.70
2018-12-27T17:01:55.062Z,18.60
2018-12-27T17:04:35.960Z,18.60
2018-12-27T17:07:16.929Z,18.50
2018-12-27T17:09:57.866Z,18.50
2018-12-27T17:12:38.875Z,18.40
2018-12-27T17:15:17.624Z,18.40
2018-12-27T17:18:05.418Z,18.40
2018-12-27T17:20:44.160Z,18.30
2018-12-27T17:23:31.955Z,18.30
2018-12-27T17:26:12.600Z,18.20
2018-12-27T17:28:53.691Z,18.20
2018-12-27T17:31:34.610Z,18.20
2018-12-27T17:34:15.571Z,18.10
2018-12-27T17:36:56.335Z,18.10
2018-12-27T17:39:37.503Z,18.00
2018-12-27T17:42:18.239Z,18.00
2018-12-27T17:44:58.983Z,18.00
2018-12-27T17:47:40.107Z,17.90
2018-12-27T17:50:21.151Z,17.90
2018-12-27T17:53:01.486Z,17.90
2018-12-27T17:55:42.481Z,17.80
2018-12-27T17:58:23.689Z,17.80
2018-12-27T18:01:04.658Z,17.80
2018-12-27T18:03:45.683Z,17.70
2018-12-27T18:06:26.575Z,17.70
2018-12-27T18:09:07.587Z,17.70
2018-12-27T18:11:48.489Z,17.60
2018-12-27T18:14:29.243Z,17.60
2018-12-27T18:17:10.291Z,17.60
2018-12-27T18:19:51.180Z,17.50
2018-12-27T18:22:32.028Z,17.50
2018-12-27T18:25:13.043Z,17.40
2018-12-27T18:27:53.948Z,17.50
2018-12-27T18:30:35.166Z,17.40
2018-12-27T18:33:16.062Z,17.40
2018-12-27T18:35:57.132Z,17.40
2018-12-27T18:38:38.179Z,17.30
2018-12-27T18:41:19.172Z,17.30
2018-12-27T18:43:59.983Z,17.30
2018-12-27T18:46:40.551Z,17.20
2018-12-27T18:49:21.667Z,17.20
2018-12-27T18:52:02.687Z,17.20
2018-12-27T18:54:43.715Z,17.10
2018-12-27T18:57:24.610Z,17.10
2018-12-27T19:00:05.320Z,17.10
2018-12-27T19:02:46.031Z,17.10
2018-12-27T19:08:26.068Z,17.00
2018-12-27T19:11:06.944Z,17.00
2018-12-27T19:13:48.084Z,16.90
2018-12-27T19:16:29.275Z,16.90
2018-12-27T19:19:10.217Z,16.90
2018-12-27T19:21:50.923Z,16.90
2018-12-27T19:24:32.027Z,16.80
2018-12-27T19:27:13.135Z,16.80
2018-12-27T19:29:54.070Z,16.80
2018-12-27T19:32:35.035Z,16.80
2018-12-27T19:35:16.115Z,16.80
2018-12-27T19:37:57.009Z,16.80
2018-12-27T19:40:37.350Z,16.70
2018-12-27T19:43:18.439Z,16.70
2018-12-27T19:45:59.403Z,16.70
2018-12-27T19:48:40.247Z,16.70
2018-12-27T19:51:20.548Z,16.70
2018-12-27T19:54:01.671Z,16.60
2018-12-27T19:56:42.523Z,16.60
2018-12-27T19:59:23.364Z,16.60
2018-12-27T20:05:16.976Z,16.60
2018-12-27T20:07:59.430Z,16.50
2018-12-27T20:10:38.320Z,16.50
2018-12-27T20:13:26.123Z,16.50
2018-12-27T20:16:07.067Z,16.50
2018-12-27T20:18:47.999Z,16.50
2018-12-27T20:21:28.891Z,16.40
2018-12-27T20:24:09.711Z,16.40
2018-12-27T20:26:50.827Z,16.40
2018-12-27T20:29:31.543Z,16.40
2018-12-27T20:32:12.203Z,16.40
2018-12-27T20:34:53.170Z,16.30
2018-12-27T20:37:34.288Z,16.30
2018-12-27T20:40:14.959Z,16.30
2018-12-27T20:42:55.335Z,16.30
2018-12-27T20:45:34.055Z,16.30
2018-12-27T20:48:21.831Z,16.20
2018-12-27T20:51:02.647Z,16.30
2018-12-27T20:53:43.540Z,16.20
2018-12-27T20:56:24.507Z,16.20
2018-12-27T20:59:03.216Z,16.20
2018-12-27T21:01:44.085Z,16.10
2018-12-27T21:04:24.639Z,16.10
2018-12-27T21:07:05.793Z,16.10
2018-12-27T21:12:45.359Z,16.10
2018-12-27T21:15:26.387Z,16.10
2018-12-27T21:18:07.568Z,16.10
2018-12-27T21:20:48.459Z,16.00
2018-12-27T21:23:29.524Z,16.00
2018-12-27T21:26:09.799Z,16.00
2018-12-27T21:28:50.751Z,16.00
2018-12-27T21:31:31.828Z,15.90
2018-12-27T21:34:12.833Z,16.00
2018-12-27T21:36:53.882Z,15.90
2018-12-27T21:39:34.876Z,15.90
2018-12-27T21:42:15.894Z,15.90
2018-12-27T21:44:56.547Z,15.90
2018-12-27T21:47:37.788Z,15.90
2018-12-27T21:50:18.579Z,15.90
2018-12-27T21:52:59.615Z,15.80
2018-12-27T21:55:40.227Z,15.80
2018-12-27T21:58:20.959Z,15.80
2018-12-27T22:01:01.632Z,15.80
2018-12-27T22:03:42.618Z,15.80
2018-12-27T22:06:23.672Z,15.70
2018-12-27T22:09:04.307Z,15.70
2018-12-27T22:11:44.945Z,15.70
2018-12-27T22:14:25.868Z,15.70
2018-12-27T22:17:06.827Z,15.70
2018-12-27T22:19:47.868Z,15.70
2018-12-27T22:22:28.246Z,15.70
2018-12-27T22:25:08.968Z,15.70
2018-12-27T22:27:49.648Z,15.70
2018-12-27T22:30:30.739Z,15.60
2018-12-27T22:33:11.531Z,15.60
2018-12-27T22:35:52.459Z,15.60
2018-12-27T22:38:35.643Z,15.60
2018-12-27T22:41:20.659Z,15.50
2018-12-27T22:44:01.835Z,15.50
2018-12-27T22:46:42.891Z,15.50
2018-12-27T22:49:23.999Z,15.50
2018-12-27T22:52:04.763Z,15.50
2018-12-27T22:54:43.479Z,15.50
2018-12-27T22:57:31.263Z,15.50
2018-12-27T23:00:11.682Z,15.50
2018-12-27T23:02:52.717Z,15.40
2018-12-27T23:05:33.108Z,15.40
2018-12-27T23:08:14.071Z,15.40
2018-12-27T23:10:55.345Z,15.40
2018-12-27T23:13:36.362Z,15.40
2018-12-27T23:16:17.173Z,15.40
2018-12-27T23:18:58.199Z,15.40
2018-12-27T23:21:39.191Z,15.40
2018-12-27T23:24:20.243Z,15.30
2018-12-27T23:27:01.303Z,15.30
2018-12-27T23:29:41.927Z,15.30
2018-12-27T23:32:22.540Z,15.30
2018-12-27T23:35:03.159Z,15.30
2018-12-27T23:37:44.331Z,15.30
2018-12-27T23:40:25.459Z,15.30
2018-12-27T23:43:06.575Z,15.20
2018-12-27T23:45:47.439Z,15.30
2018-12-27T23:48:28.571Z,15.20
2018-12-27T23:51:09.510Z,15.20
2018-12-27T23:53:50.267Z,15.20
2018-12-27T23:56:31.080Z,15.20
